sensor_id;sensor_type;location;lat;lon;timestamp;P1;durP1;ratioP1;P2;durP2;ratioP2
43529;SDS011;55654;50.966;6.878;2023-02-12T00:00:49;87.40;;;44.47;;
43529;SDS011;55654;50.966;6.878;2023-02-12T00:03:26;91.40;;;45.67;;
43529;SDS011;55654;50.966;6.878;2023-02-12T00:05:52;90.23;;;45.97;;
43529;SDS011;55654;50.966;6.878;2023-02-12T00:08:18;87.77;;;45.77;;
43529;SDS011;55654;50.966;6.878;2023-02-12T00:10:52;89.90;;;46.27;;
43529;SDS011;55654;50.966;6.878;2023-02-12T00:13:18;86.78;;;44.05;;
43529;SDS011;55654;50.966;6.878;2023-02-12T00:15:45;97.67;;;48.57;;
43529;SDS011;55654;50.966;6.878;2023-02-12T00:18:11;89.23;;;44.77;;
43529;SDS011;55654;50.966;6.878;2023-02-12T00:20:40;88.63;;;43.93;;
43529;SDS011;55654;50.966;6.878;2023-02-12T00:23:06;93.43;;;45.17;;
43529;SDS011;55654;50.966;6.878;2023-02-12T00:25:32;87.23;;;45.27;;
43529;SDS011;55654;50.966;6.878;2023-02-12T00:27:58;87.83;;;44.63;;
43529;SDS011;55654;50.966;6.878;2023-02-12T00:30:24;86.63;;;44.37;;
43529;SDS011;55654;50.966;6.878;2023-02-12T00:32:50;85.67;;;44.60;;
43529;SDS011;55654;50.966;6.878;2023-02-12T00:35:19;84.73;;;43.57;;
43529;SDS011;55654;50.966;6.878;2023-02-12T00:37:51;88.63;;;43.63;;
43529;SDS011;55654;50.966;6.878;2023-02-12T00:40:17;88.07;;;45.10;;
43529;SDS011;55654;50.966;6.878;2023-02-12T00:42:43;98.90;;;45.97;;
43529;SDS011;55654;50.966;6.878;2023-02-12T00:45:09;90.30;;;45.07;;
43529;SDS011;55654;50.966;6.878;2023-02-12T00:47:35;82.93;;;42.73;;
43529;SDS011;55654;50.966;6.878;2023-02-12T00:50:07;85.50;;;45.03;;
43529;SDS011;55654;50.966;6.878;2023-02-12T00:52:33;84.85;;;44.08;;
43529;SDS011;55654;50.966;6.878;2023-02-12T00:54:59;91.47;;;43.60;;
43529;SDS011;55654;50.966;6.878;2023-02-12T00:57:25;89.50;;;43.83;;
43529;SDS011;55654;50.966;6.878;2023-02-12T00:59:51;92.63;;;45.40;;
43529;SDS011;55654;50.966;6.878;2023-02-12T01:02:17;94.83;;;45.53;;
43529;SDS011;55654;50.966;6.878;2023-02-12T01:04:43;94.10;;;46.77;;
43529;SDS011;55654;50.966;6.878;2023-02-12T01:07:09;96.27;;;46.97;;
43529;SDS011;55654;50.966;6.878;2023-02-12T01:09:35;92.60;;;44.87;;
43529;SDS011;55654;50.966;6.878;2023-02-12T01:12:01;87.23;;;45.10;;
43529;SDS011;55654;50.966;6.878;2023-02-12T01:14:27;87.10;;;44.30;;
43529;SDS011;55654;50.966;6.878;2023-02-12T01:16:53;91.77;;;45.03;;
43529;SDS011;55654;50.966;6.878;2023-02-12T01:19:19;88.87;;;45.40;;
43529;SDS011;55654;50.966;6.878;2023-02-12T01:21:45;87.17;;;44.90;;
43529;SDS011;55654;50.966;6.878;2023-02-12T01:24:11;92.07;;;46.20;;
43529;SDS011;55654;50.966;6.878;2023-02-12T01:26:39;97.73;;;47.03;;
43529;SDS011;55654;50.966;6.878;2023-02-12T01:29:05;91.50;;;46.33;;
43529;SDS011;55654;50.966;6.878;2023-02-12T01:31:35;93.77;;;47.07;;
43529;SDS011;55654;50.966;6.878;2023-02-12T01:34:02;91.70;;;45.27;;
43529;SDS011;55654;50.966;6.878;2023-02-12T01:36:28;93.90;;;46.67;;
43529;SDS011;55654;50.966;6.878;2023-02-12T01:38:55;96.57;;;46.23;;
43529;SDS011;55654;50.966;6.878;2023-02-12T01:41:31;83.80;;;41.90;;
43529;SDS011;55654;50.966;6.878;2023-02-12T01:44:14;85.67;;;45.00;;
43529;SDS011;55654;50.966;6.878;2023-02-12T01:46:41;92.10;;;44.87;;
43529;SDS011;55654;50.966;6.878;2023-02-12T01:49:11;90.13;;;44.80;;
43529;SDS011;55654;50.966;6.878;2023-02-12T01:51:38;88.50;;;44.37;;
43529;SDS011;55654;50.966;6.878;2023-02-12T01:54:05;89.00;;;43.77;;
43529;SDS011;55654;50.966;6.878;2023-02-12T01:56:32;83.13;;;44.93;;
43529;SDS011;55654;50.966;6.878;2023-02-12T01:59:00;90.67;;;46.17;;
43529;SDS011;55654;50.966;6.878;2023-02-12T02:01:27;93.07;;;44.80;;
43529;SDS011;55654;50.966;6.878;2023-02-12T02:03:54;90.47;;;44.73;;
43529;SDS011;55654;50.966;6.878;2023-02-12T02:06:24;91.80;;;46.83;;
43529;SDS011;55654;50.966;6.878;2023-02-12T02:08:51;87.80;;;42.90;;
43529;SDS011;55654;50.966;6.878;2023-02-12T02:11:18;91.13;;;44.70;;
43529;SDS011;55654;50.966;6.878;2023-02-12T02:14:04;88.80;;;43.67;;
43529;SDS011;55654;50.966;6.878;2023-02-12T02:16:52;84.93;;;43.47;;
43529;SDS011;55654;50.966;6.878;2023-02-12T02:20:14;90.88;;;45.20;;
43529;SDS011;55654;50.966;6.878;2023-02-12T02:22:25;91.47;;;45.83;;
43529;SDS011;55654;50.966;6.878;2023-02-12T02:27:23;95.27;;;47.00;;
43529;SDS011;55654;50.966;6.878;2023-02-12T02:33:04;94.43;;;45.20;;
43529;SDS011;55654;50.966;6.878;2023-02-12T02:35:08;92.07;;;44.80;;
43529;SDS011;55654;50.966;6.878;2023-02-12T02:37:39;86.07;;;44.23;;
43529;SDS011;55654;50.966;6.878;2023-02-12T02:45:25;96.10;;;45.27;;
43529;SDS011;55654;50.966;6.878;2023-02-12T02:47:55;94.20;;;46.50;;
43529;SDS011;55654;50.966;6.878;2023-02-12T02:50:23;88.07;;;44.37;;
43529;SDS011;55654;50.966;6.878;2023-02-12T02:53:51;84.93;;;42.90;;
43529;SDS011;55654;50.966;6.878;2023-02-12T02:55:48;88.63;;;44.90;;
43529;SDS011;55654;50.966;6.878;2023-02-12T02:58:16;87.00;;;43.67;;
43529;SDS011;55654;50.966;6.878;2023-02-12T03:06:14;94.43;;;46.27;;
43529;SDS011;55654;50.966;6.878;2023-02-12T03:08:48;102.27;;;48.30;;
43529;SDS011;55654;50.966;6.878;2023-02-12T03:11:23;105.72;;;49.58;;
43529;SDS011;55654;50.966;6.878;2023-02-12T03:14:12;107.70;;;49.33;;
43529;SDS011;55654;50.966;6.878;2023-02-12T03:16:42;99.87;;;47.73;;
43529;SDS011;55654;50.966;6.878;2023-02-12T03:21:38;103.63;;;48.03;;
43529;SDS011;55654;50.966;6.878;2023-02-12T03:26:51;103.55;;;47.45;;
43529;SDS011;55654;50.966;6.878;2023-02-12T03:29:19;106.07;;;51.40;;
43529;SDS011;55654;50.966;6.878;2023-02-12T03:31:54;98.00;;;47.83;;
43529;SDS011;55654;50.966;6.878;2023-02-12T03:36:54;88.87;;;46.73;;
43529;SDS011;55654;50.966;6.878;2023-02-12T03:42:21;94.00;;;45.87;;
43529;SDS011;55654;50.966;6.878;2023-02-12T03:44:52;91.97;;;45.93;;
43529;SDS011;55654;50.966;6.878;2023-02-12T03:52:54;90.40;;;43.60;;
43529;SDS011;55654;50.966;6.878;2023-02-12T03:55:23;97.60;;;44.47;;
43529;SDS011;55654;50.966;6.878;2023-02-12T03:57:50;85.57;;;43.20;;
43529;SDS011;55654;50.966;6.878;2023-02-12T04:00:19;96.90;;;45.27;;
43529;SDS011;55654;50.966;6.878;2023-02-12T04:02:45;90.30;;;45.77;;
43529;SDS011;55654;50.966;6.878;2023-02-12T04:05:15;91.73;;;44.70;;
43529;SDS011;55654;50.966;6.878;2023-02-12T04:07:42;90.10;;;44.43;;
43529;SDS011;55654;50.966;6.878;2023-02-12T04:10:08;92.00;;;44.47;;
43529;SDS011;55654;50.966;6.878;2023-02-12T04:18:00;83.20;;;42.60;;
43529;SDS011;55654;50.966;6.878;2023-02-12T04:23:20;91.77;;;45.13;;
43529;SDS011;55654;50.966;6.878;2023-02-12T04:31:10;85.43;;;42.83;;
43529;SDS011;55654;50.966;6.878;2023-02-12T04:33:43;85.80;;;42.53;;
43529;SDS011;55654;50.966;6.878;2023-02-12T04:36:14;85.27;;;43.00;;
43529;SDS011;55654;50.966;6.878;2023-02-12T04:38:55;83.37;;;43.23;;
43529;SDS011;55654;50.966;6.878;2023-02-12T04:41:22;88.93;;;44.50;;
43529;SDS011;55654;50.966;6.878;2023-02-12T04:43:48;94.17;;;44.87;;
43529;SDS011;55654;50.966;6.878;2023-02-12T04:46:14;88.60;;;44.67;;
43529;SDS011;55654;50.966;6.878;2023-02-12T04:48:53;91.63;;;44.07;;
43529;SDS011;55654;50.966;6.878;2023-02-12T04:51:20;97.63;;;46.77;;
43529;SDS011;55654;50.966;6.878;2023-02-12T04:53:46;86.83;;;43.60;;
43529;SDS011;55654;50.966;6.878;2023-02-12T04:56:13;96.67;;;46.10;;
43529;SDS011;55654;50.966;6.878;2023-02-12T04:58:39;90.03;;;44.50;;
43529;SDS011;55654;50.966;6.878;2023-02-12T05:01:05;102.27;;;45.40;;
43529;SDS011;55654;50.966;6.878;2023-02-12T05:03:32;91.50;;;45.03;;
43529;SDS011;55654;50.966;6.878;2023-02-12T05:06:05;90.00;;;43.13;;
43529;SDS011;55654;50.966;6.878;2023-02-12T05:08:31;91.63;;;43.90;;
43529;SDS011;55654;50.966;6.878;2023-02-12T05:11:02;92.33;;;45.07;;
43529;SDS011;55654;50.966;6.878;2023-02-12T05:13:28;96.10;;;44.70;;
43529;SDS011;55654;50.966;6.878;2023-02-12T05:15:56;95.73;;;47.20;;
43529;SDS011;55654;50.966;6.878;2023-02-12T05:18:25;88.87;;;44.50;;
43529;SDS011;55654;50.966;6.878;2023-02-12T05:20:55;97.67;;;45.70;;
43529;SDS011;55654;50.966;6.878;2023-02-12T05:23:22;96.03;;;45.57;;
43529;SDS011;55654;50.966;6.878;2023-02-12T05:25:48;103.07;;;46.73;;
43529;SDS011;55654;50.966;6.878;2023-02-12T05:28:13;100.47;;;45.97;;
43529;SDS011;55654;50.966;6.878;2023-02-12T05:30:39;99.60;;;46.83;;
43529;SDS011;55654;50.966;6.878;2023-02-12T05:33:05;97.20;;;48.23;;
43529;SDS011;55654;50.966;6.878;2023-02-12T05:35:33;90.10;;;43.20;;
43529;SDS011;55654;50.966;6.878;2023-02-12T05:38:02;88.70;;;44.00;;
43529;SDS011;55654;50.966;6.878;2023-02-12T05:40:28;83.77;;;43.40;;
43529;SDS011;55654;50.966;6.878;2023-02-12T05:42:54;88.70;;;44.13;;
43529;SDS011;55654;50.966;6.878;2023-02-12T05:45:20;92.63;;;43.70;;
43529;SDS011;55654;50.966;6.878;2023-02-12T05:47:51;93.30;;;46.23;;
43529;SDS011;55654;50.966;6.878;2023-02-12T05:50:17;91.53;;;44.70;;
43529;SDS011;55654;50.966;6.878;2023-02-12T05:52:43;97.80;;;46.40;;
43529;SDS011;55654;50.966;6.878;2023-02-12T05:55:09;88.90;;;43.73;;
43529;SDS011;55654;50.966;6.878;2023-02-12T05:57:38;94.27;;;45.80;;
43529;SDS011;55654;50.966;6.878;2023-02-12T06:00:05;94.90;;;44.87;;
43529;SDS011;55654;50.966;6.878;2023-02-12T06:02:34;84.37;;;42.47;;
43529;SDS011;55654;50.966;6.878;2023-02-12T06:05:02;87.93;;;43.37;;
43529;SDS011;55654;50.966;6.878;2023-02-12T06:07:28;90.17;;;43.90;;
43529;SDS011;55654;50.966;6.878;2023-02-12T06:09:54;96.33;;;44.37;;
43529;SDS011;55654;50.966;6.878;2023-02-12T06:12:20;97.37;;;46.87;;
43529;SDS011;55654;50.966;6.878;2023-02-12T06:14:46;102.37;;;46.90;;
43529;SDS011;55654;50.966;6.878;2023-02-12T06:17:12;91.33;;;45.10;;
43529;SDS011;55654;50.966;6.878;2023-02-12T06:19:38;92.07;;;43.90;;
43529;SDS011;55654;50.966;6.878;2023-02-12T06:22:07;87.43;;;43.03;;
43529;SDS011;55654;50.966;6.878;2023-02-12T06:24:54;86.03;;;44.23;;
43529;SDS011;55654;50.966;6.878;2023-02-12T06:27:40;88.60;;;42.53;;
43529;SDS011;55654;50.966;6.878;2023-02-12T06:30:08;89.23;;;43.90;;
43529;SDS011;55654;50.966;6.878;2023-02-12T06:32:37;85.17;;;40.70;;
43529;SDS011;55654;50.966;6.878;2023-02-12T06:35:03;84.03;;;42.03;;
43529;SDS011;55654;50.966;6.878;2023-02-12T06:37:29;91.73;;;44.07;;
43529;SDS011;55654;50.966;6.878;2023-02-12T06:40:01;96.60;;;43.67;;
43529;SDS011;55654;50.966;6.878;2023-02-12T06:42:27;88.90;;;42.67;;
43529;SDS011;55654;50.966;6.878;2023-02-12T06:44:53;84.17;;;41.20;;
43529;SDS011;55654;50.966;6.878;2023-02-12T06:47:19;84.43;;;43.30;;
43529;SDS011;55654;50.966;6.878;2023-02-12T06:49:45;92.43;;;44.43;;
43529;SDS011;55654;50.966;6.878;2023-02-12T06:52:13;99.40;;;45.30;;
43529;SDS011;55654;50.966;6.878;2023-02-12T06:54:39;89.27;;;43.93;;
43529;SDS011;55654;50.966;6.878;2023-02-12T06:57:05;91.20;;;43.73;;
43529;SDS011;55654;50.966;6.878;2023-02-12T06:59:31;93.57;;;42.43;;
43529;SDS011;55654;50.966;6.878;2023-02-12T07:01:57;85.27;;;43.57;;
43529;SDS011;55654;50.966;6.878;2023-02-12T07:04:23;92.53;;;43.90;;
43529;SDS011;55654;50.966;6.878;2023-02-12T07:06:49;90.23;;;43.00;;
43529;SDS011;55654;50.966;6.878;2023-02-12T07:09:16;93.97;;;44.13;;
43529;SDS011;55654;50.966;6.878;2023-02-12T07:11:41;96.27;;;44.67;;
43529;SDS011;55654;50.966;6.878;2023-02-12T07:14:11;94.50;;;45.20;;
43529;SDS011;55654;50.966;6.878;2023-02-12T07:16:38;93.50;;;47.43;;
43529;SDS011;55654;50.966;6.878;2023-02-12T07:19:04;88.10;;;44.20;;
43529;SDS011;55654;50.966;6.878;2023-02-12T07:21:30;92.20;;;46.33;;
43529;SDS011;55654;50.966;6.878;2023-02-12T07:23:56;97.80;;;48.20;;
43529;SDS011;55654;50.966;6.878;2023-02-12T07:26:22;90.20;;;44.37;;
43529;SDS011;55654;50.966;6.878;2023-02-12T07:28:48;96.90;;;44.77;;
43529;SDS011;55654;50.966;6.878;2023-02-12T07:31:16;98.57;;;47.83;;
43529;SDS011;55654;50.966;6.878;2023-02-12T07:33:43;95.63;;;46.30;;
43529;SDS011;55654;50.966;6.878;2023-02-12T07:36:11;102.13;;;46.10;;
43529;SDS011;55654;50.966;6.878;2023-02-12T07:38:40;89.83;;;44.33;;
43529;SDS011;55654;50.966;6.878;2023-02-12T07:41:16;88.63;;;43.67;;
43529;SDS011;55654;50.966;6.878;2023-02-12T07:43:43;90.13;;;42.93;;
43529;SDS011;55654;50.966;6.878;2023-02-12T07:48:38;90.30;;;45.13;;
43529;SDS011;55654;50.966;6.878;2023-02-12T07:51:09;83.47;;;43.13;;
43529;SDS011;55654;50.966;6.878;2023-02-12T07:53:35;86.60;;;45.07;;
43529;SDS011;55654;50.966;6.878;2023-02-12T07:56:12;83.63;;;44.07;;
43529;SDS011;55654;50.966;6.878;2023-02-12T07:58:39;89.60;;;45.13;;
43529;SDS011;55654;50.966;6.878;2023-02-12T08:03:47;77.50;;;41.73;;
43529;SDS011;55654;50.966;6.878;2023-02-12T08:06:21;80.33;;;43.23;;
43529;SDS011;55654;50.966;6.878;2023-02-12T08:08:49;79.33;;;41.70;;
43529;SDS011;55654;50.966;6.878;2023-02-12T08:11:16;71.63;;;39.53;;
43529;SDS011;55654;50.966;6.878;2023-02-12T08:13:43;64.67;;;36.43;;
43529;SDS011;55654;50.966;6.878;2023-02-12T08:16:10;74.73;;;42.03;;
43529;SDS011;55654;50.966;6.878;2023-02-12T08:18:36;73.40;;;41.50;;
43529;SDS011;55654;50.966;6.878;2023-02-12T08:23:28;64.80;;;38.00;;
43529;SDS011;55654;50.966;6.878;2023-02-12T08:26:02;63.27;;;37.30;;
43529;SDS011;55654;50.966;6.878;2023-02-12T08:28:28;63.83;;;35.87;;
43529;SDS011;55654;50.966;6.878;2023-02-12T08:30:58;66.60;;;36.77;;
43529;SDS011;55654;50.966;6.878;2023-02-12T08:33:24;62.17;;;36.40;;
43529;SDS011;55654;50.966;6.878;2023-02-12T08:35:58;60.83;;;34.70;;
43529;SDS011;55654;50.966;6.878;2023-02-12T08:38:24;61.87;;;37.53;;
43529;SDS011;55654;50.966;6.878;2023-02-12T08:40:50;58.73;;;35.90;;
43529;SDS011;55654;50.966;6.878;2023-02-12T08:43:16;62.10;;;36.03;;
43529;SDS011;55654;50.966;6.878;2023-02-12T08:45:44;60.30;;;35.73;;
43529;SDS011;55654;50.966;6.878;2023-02-12T08:48:10;58.60;;;36.03;;
43529;SDS011;55654;50.966;6.878;2023-02-12T08:50:36;56.57;;;34.93;;
43529;SDS011;55654;50.966;6.878;2023-02-12T08:53:03;60.43;;;35.03;;
43529;SDS011;55654;50.966;6.878;2023-02-12T08:55:29;58.27;;;35.90;;
43529;SDS011;55654;50.966;6.878;2023-02-12T08:57:55;58.30;;;35.40;;
43529;SDS011;55654;50.966;6.878;2023-02-12T09:00:22;58.17;;;34.30;;
43529;SDS011;55654;50.966;6.878;2023-02-12T09:02:48;55.73;;;34.17;;
43529;SDS011;55654;50.966;6.878;2023-02-12T09:05:14;59.83;;;34.43;;
43529;SDS011;55654;50.966;6.878;2023-02-12T09:07:40;57.27;;;35.30;;
43529;SDS011;55654;50.966;6.878;2023-02-12T09:10:06;59.10;;;34.40;;
43529;SDS011;55654;50.966;6.878;2023-02-12T09:12:32;54.77;;;35.03;;
43529;SDS011;55654;50.966;6.878;2023-02-12T09:14:58;61.10;;;35.60;;
43529;SDS011;55654;50.966;6.878;2023-02-12T09:17:24;57.50;;;34.97;;
43529;SDS011;55654;50.966;6.878;2023-02-12T09:19:51;63.43;;;37.80;;
43529;SDS011;55654;50.966;6.878;2023-02-12T09:22:17;61.90;;;37.77;;
43529;SDS011;55654;50.966;6.878;2023-02-12T09:24:43;61.17;;;35.47;;
43529;SDS011;55654;50.966;6.878;2023-02-12T09:27:09;62.77;;;37.63;;
43529;SDS011;55654;50.966;6.878;2023-02-12T09:29:36;61.03;;;36.27;;
43529;SDS011;55654;50.966;6.878;2023-02-12T09:32:04;62.67;;;37.33;;
43529;SDS011;55654;50.966;6.878;2023-02-12T09:34:33;67.57;;;40.40;;
43529;SDS011;55654;50.966;6.878;2023-02-12T09:36:59;69.93;;;41.13;;
43529;SDS011;55654;50.966;6.878;2023-02-12T09:39:26;62.20;;;39.00;;
43529;SDS011;55654;50.966;6.878;2023-02-12T09:44:46;71.65;;;39.60;;
43529;SDS011;55654;50.966;6.878;2023-02-12T09:47:22;65.17;;;39.70;;
43529;SDS011;55654;50.966;6.878;2023-02-12T09:52:34;77.87;;;41.87;;
43529;SDS011;55654;50.966;6.878;2023-02-12T09:55:01;75.10;;;41.67;;
43529;SDS011;55654;50.966;6.878;2023-02-12T09:57:29;69.00;;;41.63;;
43529;SDS011;55654;50.966;6.878;2023-02-12T10:00:00;73.07;;;41.40;;
43529;SDS011;55654;50.966;6.878;2023-02-12T10:02:28;73.03;;;42.80;;
43529;SDS011;55654;50.966;6.878;2023-02-12T10:04:54;73.27;;;42.93;;
43529;SDS011;55654;50.966;6.878;2023-02-12T10:12:33;73.30;;;42.67;;
43529;SDS011;55654;50.966;6.878;2023-02-12T10:17:42;73.73;;;40.47;;
43529;SDS011;55654;50.966;6.878;2023-02-12T10:23:04;71.73;;;41.20;;
43529;SDS011;55654;50.966;6.878;2023-02-12T10:28:04;66.30;;;41.63;;
43529;SDS011;55654;50.966;6.878;2023-02-12T10:30:39;74.43;;;45.28;;
43529;SDS011;55654;50.966;6.878;2023-02-12T10:33:20;67.43;;;37.37;;
43529;SDS011;55654;50.966;6.878;2023-02-12T10:35:52;63.20;;;38.85;;
43529;SDS011;55654;50.966;6.878;2023-02-12T10:38:20;63.43;;;38.83;;
43529;SDS011;55654;50.966;6.878;2023-02-12T10:40:47;65.33;;;38.53;;
43529;SDS011;55654;50.966;6.878;2023-02-12T10:43:14;65.90;;;38.30;;
43529;SDS011;55654;50.966;6.878;2023-02-12T10:45:40;59.47;;;37.27;;
43529;SDS011;55654;50.966;6.878;2023-02-12T10:50:51;63.10;;;38.78;;
43529;SDS011;55654;50.966;6.878;2023-02-12T10:53:22;65.20;;;37.00;;
43529;SDS011;55654;50.966;6.878;2023-02-12T10:55:49;59.23;;;34.70;;
43529;SDS011;55654;50.966;6.878;2023-02-12T10:58:21;58.27;;;34.17;;
43529;SDS011;55654;50.966;6.878;2023-02-12T11:01:00;52.40;;;32.17;;
43529;SDS011;55654;50.966;6.878;2023-02-12T11:03:30;59.67;;;35.47;;
43529;SDS011;55654;50.966;6.878;2023-02-12T11:06:15;64.10;;;36.47;;
43529;SDS011;55654;50.966;6.878;2023-02-12T11:08:41;58.10;;;35.27;;
43529;SDS011;55654;50.966;6.878;2023-02-12T11:11:11;57.78;;;33.33;;
43529;SDS011;55654;50.966;6.878;2023-02-12T11:14:23;58.23;;;35.53;;
43529;SDS011;55654;50.966;6.878;2023-02-12T11:16:31;48.20;;;30.53;;
43529;SDS011;55654;50.966;6.878;2023-02-12T11:19:04;55.40;;;30.57;;
43529;SDS011;55654;50.966;6.878;2023-02-12T11:21:32;47.90;;;31.45;;
43529;SDS011;55654;50.966;6.878;2023-02-12T11:24:19;47.10;;;30.25;;
43529;SDS011;55654;50.966;6.878;2023-02-12T11:26:45;50.33;;;31.35;;
43529;SDS011;55654;50.966;6.878;2023-02-12T11:29:19;45.00;;;27.07;;
43529;SDS011;55654;50.966;6.878;2023-02-12T11:32:05;46.47;;;28.73;;
43529;SDS011;55654;50.966;6.878;2023-02-12T11:34:38;46.20;;;28.53;;
43529;SDS011;55654;50.966;6.878;2023-02-12T11:37:06;41.07;;;25.60;;
43529;SDS011;55654;50.966;6.878;2023-02-12T11:39:40;46.83;;;29.00;;
43529;SDS011;55654;50.966;6.878;2023-02-12T11:42:15;41.30;;;26.90;;
43529;SDS011;55654;50.966;6.878;2023-02-12T11:47:17;39.78;;;23.83;;
43529;SDS011;55654;50.966;6.878;2023-02-12T11:49:51;44.57;;;27.60;;
43529;SDS011;55654;50.966;6.878;2023-02-12T11:52:24;48.60;;;28.30;;
43529;SDS011;55654;50.966;6.878;2023-02-12T11:54:52;51.87;;;29.57;;
43529;SDS011;55654;50.966;6.878;2023-02-12T12:00:24;46.03;;;27.30;;
43529;SDS011;55654;50.966;6.878;2023-02-12T12:02:56;47.40;;;27.30;;
43529;SDS011;55654;50.966;6.878;2023-02-12T12:05:24;47.00;;;27.90;;
43529;SDS011;55654;50.966;6.878;2023-02-12T12:07:52;51.50;;;28.67;;
43529;SDS011;55654;50.966;6.878;2023-02-12T12:10:55;48.43;;;29.90;;
43529;SDS011;55654;50.966;6.878;2023-02-12T12:13:17;51.00;;;29.00;;
43529;SDS011;55654;50.966;6.878;2023-02-12T12:15:47;52.10;;;29.60;;
43529;SDS011;55654;50.966;6.878;2023-02-12T12:18:46;51.00;;;30.07;;
43529;SDS011;55654;50.966;6.878;2023-02-12T12:24:01;47.97;;;29.27;;
43529;SDS011;55654;50.966;6.878;2023-02-12T12:26:28;48.60;;;30.00;;
43529;SDS011;55654;50.966;6.878;2023-02-12T12:29:00;48.63;;;29.83;;
43529;SDS011;55654;50.966;6.878;2023-02-12T12:31:40;46.80;;;28.70;;
43529;SDS011;55654;50.966;6.878;2023-02-12T12:34:14;46.57;;;29.47;;
43529;SDS011;55654;50.966;6.878;2023-02-12T12:57:02;48.87;;;27.90;;
43529;SDS011;55654;50.966;6.878;2023-02-12T12:59:39;35.33;;;21.17;;
43529;SDS011;55654;50.966;6.878;2023-02-12T13:10:00;41.80;;;23.60;;
43529;SDS011;55654;50.966;6.878;2023-02-12T13:17:34;40.33;;;23.63;;
43529;SDS011;55654;50.966;6.878;2023-02-12T13:20:07;41.53;;;25.60;;
43529;SDS011;55654;50.966;6.878;2023-02-12T13:22:38;40.23;;;24.33;;
43529;SDS011;55654;50.966;6.878;2023-02-12T13:25:13;35.77;;;23.13;;
43529;SDS011;55654;50.966;6.878;2023-02-12T13:27:41;41.60;;;25.67;;
43529;SDS011;55654;50.966;6.878;2023-02-12T13:30:29;37.20;;;22.73;;
43529;SDS011;55654;50.966;6.878;2023-02-12T13:35:31;45.00;;;26.00;;
43529;SDS011;55654;50.966;6.878;2023-02-12T13:37:59;39.17;;;23.93;;
43529;SDS011;55654;50.966;6.878;2023-02-12T13:40:28;42.27;;;23.57;;
43529;SDS011;55654;50.966;6.878;2023-02-12T13:53:24;38.10;;;23.07;;
43529;SDS011;55654;50.966;6.878;2023-02-12T13:59:13;34.87;;;21.33;;
43529;SDS011;55654;50.966;6.878;2023-02-12T14:01:11;38.37;;;21.83;;
43529;SDS011;55654;50.966;6.878;2023-02-12T14:03:38;35.47;;;20.47;;
43529;SDS011;55654;50.966;6.878;2023-02-12T14:08:37;33.73;;;19.27;;
43529;SDS011;55654;50.966;6.878;2023-02-12T14:11:08;31.23;;;18.93;;
43529;SDS011;55654;50.966;6.878;2023-02-12T14:13:44;30.42;;;18.27;;
43529;SDS011;55654;50.966;6.878;2023-02-12T14:16:19;29.93;;;16.70;;
43529;SDS011;55654;50.966;6.878;2023-02-12T14:18:45;27.43;;;16.47;;
43529;SDS011;55654;50.966;6.878;2023-02-12T14:23:41;31.97;;;16.63;;
43529;SDS011;55654;50.966;6.878;2023-02-12T14:33:50;33.40;;;17.65;;
43529;SDS011;55654;50.966;6.878;2023-02-12T14:42:53;30.60;;;17.53;;
43529;SDS011;55654;50.966;6.878;2023-02-12T14:50:15;27.13;;;17.13;;
43529;SDS011;55654;50.966;6.878;2023-02-12T14:52:43;32.57;;;16.90;;
43529;SDS011;55654;50.966;6.878;2023-02-12T14:55:19;29.15;;;17.48;;
43529;SDS011;55654;50.966;6.878;2023-02-12T14:57:48;25.13;;;16.80;;
43529;SDS011;55654;50.966;6.878;2023-02-12T15:05:32;29.10;;;17.57;;
43529;SDS011;55654;50.966;6.878;2023-02-12T15:08:02;29.03;;;18.30;;
43529;SDS011;55654;50.966;6.878;2023-02-12T15:10:38;30.77;;;17.83;;
43529;SDS011;55654;50.966;6.878;2023-02-12T15:23:36;29.85;;;18.42;;
43529;SDS011;55654;50.966;6.878;2023-02-12T15:26:03;30.77;;;18.47;;
43529;SDS011;55654;50.966;6.878;2023-02-12T15:31:26;35.57;;;19.10;;
43529;SDS011;55654;50.966;6.878;2023-02-12T15:33:58;30.47;;;19.30;;
43529;SDS011;55654;50.966;6.878;2023-02-12T15:39:39;37.93;;;19.23;;
43529;SDS011;55654;50.966;6.878;2023-02-12T15:42:29;35.93;;;19.30;;
43529;SDS011;55654;50.966;6.878;2023-02-12T15:47:40;30.63;;;17.50;;
43529;SDS011;55654;50.966;6.878;2023-02-12T15:50:43;28.43;;;18.63;;
43529;SDS011;55654;50.966;6.878;2023-02-12T15:53:01;32.67;;;19.83;;
43529;SDS011;55654;50.966;6.878;2023-02-12T15:55:32;28.80;;;18.50;;
43529;SDS011;55654;50.966;6.878;2023-02-12T15:58:03;31.63;;;18.20;;
43529;SDS011;55654;50.966;6.878;2023-02-12T16:00:31;32.73;;;20.37;;
43529;SDS011;55654;50.966;6.878;2023-02-12T16:03:00;32.87;;;19.33;;
43529;SDS011;55654;50.966;6.878;2023-02-12T16:05:26;31.47;;;18.30;;
43529;SDS011;55654;50.966;6.878;2023-02-12T16:07:52;31.27;;;17.70;;
43529;SDS011;55654;50.966;6.878;2023-02-12T16:10:19;30.60;;;19.23;;
43529;SDS011;55654;50.966;6.878;2023-02-12T16:12:45;30.93;;;19.13;;
43529;SDS011;55654;50.966;6.878;2023-02-12T16:15:30;27.67;;;16.53;;
43529;SDS011;55654;50.966;6.878;2023-02-12T16:17:58;30.73;;;17.97;;
43529;SDS011;55654;50.966;6.878;2023-02-12T16:20:28;25.33;;;16.43;;
43529;SDS011;55654;50.966;6.878;2023-02-12T16:22:55;26.50;;;17.17;;
43529;SDS011;55654;50.966;6.878;2023-02-12T16:25:25;26.70;;;16.33;;
43529;SDS011;55654;50.966;6.878;2023-02-12T16:28:14;29.67;;;18.90;;
43529;SDS011;55654;50.966;6.878;2023-02-12T16:30:42;31.60;;;18.70;;
43529;SDS011;55654;50.966;6.878;2023-02-12T16:36:01;32.40;;;20.43;;
43529;SDS011;55654;50.966;6.878;2023-02-12T16:38:42;33.07;;;20.37;;
43529;SDS011;55654;50.966;6.878;2023-02-12T16:46:28;27.50;;;17.30;;
43529;SDS011;55654;50.966;6.878;2023-02-12T16:48:56;30.67;;;17.97;;
43529;SDS011;55654;50.966;6.878;2023-02-12T16:53:52;28.27;;;17.93;;
43529;SDS011;55654;50.966;6.878;2023-02-12T16:56:21;29.73;;;16.93;;
43529;SDS011;55654;50.966;6.878;2023-02-12T16:58:49;34.27;;;18.00;;
43529;SDS011;55654;50.966;6.878;2023-02-12T17:03:47;34.33;;;20.02;;
43529;SDS011;55654;50.966;6.878;2023-02-12T17:06:15;32.50;;;19.23;;
43529;SDS011;55654;50.966;6.878;2023-02-12T17:08:41;30.47;;;19.27;;
43529;SDS011;55654;50.966;6.878;2023-02-12T17:11:09;33.80;;;20.23;;
43529;SDS011;55654;50.966;6.878;2023-02-12T17:13:35;36.17;;;20.97;;
43529;SDS011;55654;50.966;6.878;2023-02-12T17:16:01;37.53;;;21.33;;
43529;SDS011;55654;50.966;6.878;2023-02-12T17:18:29;33.10;;;19.70;;
43529;SDS011;55654;50.966;6.878;2023-02-12T17:21:04;31.60;;;20.07;;
43529;SDS011;55654;50.966;6.878;2023-02-12T17:23:30;35.93;;;22.57;;
43529;SDS011;55654;50.966;6.878;2023-02-12T17:25:56;43.40;;;23.03;;
43529;SDS011;55654;50.966;6.878;2023-02-12T17:28:22;36.87;;;21.07;;
43529;SDS011;55654;50.966;6.878;2023-02-12T17:30:49;34.13;;;21.83;;
43529;SDS011;55654;50.966;6.878;2023-02-12T17:33:16;37.23;;;21.90;;
43529;SDS011;55654;50.966;6.878;2023-02-12T17:35:42;33.20;;;20.53;;
43529;SDS011;55654;50.966;6.878;2023-02-12T17:38:08;35.07;;;19.90;;
43529;SDS011;55654;50.966;6.878;2023-02-12T17:40:34;29.53;;;18.40;;
43529;SDS011;55654;50.966;6.878;2023-02-12T17:43:01;28.87;;;18.13;;
43529;SDS011;55654;50.966;6.878;2023-02-12T17:45:27;32.50;;;18.47;;
43529;SDS011;55654;50.966;6.878;2023-02-12T17:47:53;30.53;;;18.13;;